sensor_id;sensor_type;location;lat;lon;timestamp;temperature;humidity
52709;DHT22;38606;52.986;6.980;2024-02-23T00:01:51;5.60;99.90
52709;DHT22;38606;52.986;6.980;2024-02-23T00:04:16;5.80;99.90
52709;DHT22;38606;52.986;6.980;2024-02-23T00:06:44;5.60;99.90
52709;DHT22;38606;52.986;6.980;2024-02-23T00:09:10;6.80;99.90
52709;DHT22;38606;52.986;6.980;2024-02-23T00:11:39;5.70;99.90
52709;DHT22;38606;52.986;6.980;2024-02-23T00:14:06;5.50;99.90
52709;DHT22;38606;52.986;6.980;2024-02-23T00:16:38;6.10;99.90
52709;DHT22;38606;52.986;6.980;2024-02-23T00:19:05;5.60;99.90
52709;DHT22;38606;52.986;6.980;2024-02-23T00:21:31;5.90;99.90
52709;DHT22;38606;52.986;6.980;2024-02-23T00:23:57;5.70;99.90
52709;DHT22;38606;52.986;6.980;2024-02-23T00:26:22;4.70;99.90
52709;DHT22;38606;52.986;6.980;2024-02-23T00:28:48;6.10;99.90
52709;DHT22;38606;52.986;6.980;2024-02-23T00:31:14;6.00;99.90
52709;DHT22;38606;52.986;6.980;2024-02-23T00:33:39;6.60;99.90
52709;DHT22;38606;52.986;6.980;2024-02-23T00:36:07;5.70;99.90
52709;DHT22;38606;52.986;6.980;2024-02-23T00:38:33;5.60;99.90
52709;DHT22;38606;52.986;6.980;2024-02-23T00:40:59;5.40;99.90
52709;DHT22;38606;52.986;6.980;2024-02-23T00:43:24;5.50;99.90
52709;DHT22;38606;52.986;6.980;2024-02-23T00:45:50;5.70;99.90
52709;DHT22;38606;52.986;6.980;2024-02-23T00:48:16;5.60;99.90
52709;DHT22;38606;52.986;6.980;2024-02-23T00:50:41;7.10;99.90
52709;DHT22;38606;52.986;6.980;2024-02-23T00:53:07;5.60;99.90
52709;DHT22;38606;52.986;6.980;2024-02-23T00:55:33;6.40;99.90
52709;DHT22;38606;52.986;6.980;2024-02-23T00:57:58;6.20;99.90
52709;DHT22;38606;52.986;6.980;2024-02-23T01:00:24;5.50;99.90
52709;DHT22;38606;52.986;6.980;2024-02-23T01:02:50;5.20;99.90
52709;DHT22;38606;52.986;6.980;2024-02-23T01:05:17;5.90;99.90
52709;DHT22;38606;52.986;6.980;2024-02-23T01:07:43;5.20;99.90
52709;DHT22;38606;52.986;6.980;2024-02-23T01:10:09;5.80;99.90
52709;DHT22;38606;52.986;6.980;2024-02-23T01:12:35;4.90;99.90
52709;DHT22;38606;52.986;6.980;2024-02-23T01:15:01;6.00;99.90
52709;DHT22;38606;52.986;6.980;2024-02-23T01:17:27;5.00;99.90
52709;DHT22;38606;52.986;6.980;2024-02-23T01:19:52;4.90;99.90
52709;DHT22;38606;52.986;6.980;2024-02-23T01:22:18;4.60;99.90
52709;DHT22;38606;52.986;6.980;2024-02-23T01:24:44;5.50;99.90
52709;DHT22;38606;52.986;6.980;2024-02-23T01:27:09;6.10;99.90
52709;DHT22;38606;52.986;6.980;2024-02-23T01:29:35;5.50;99.90
52709;DHT22;38606;52.986;6.980;2024-02-23T01:32:01;4.50;99.90
52709;DHT22;38606;52.986;6.980;2024-02-23T01:34:27;4.30;99.90
52709;DHT22;38606;52.986;6.980;2024-02-23T01:36:52;5.60;99.90
52709;DHT22;38606;52.986;6.980;2024-02-23T01:39:18;5.60;99.90
52709;DHT22;38606;52.986;6.980;2024-02-23T01:41:44;4.40;99.90
52709;DHT22;38606;52.986;6.980;2024-02-23T01:44:10;4.20;99.90
52709;DHT22;38606;52.986;6.980;2024-02-23T01:46:37;4.50;99.90
52709;DHT22;38606;52.986;6.980;2024-02-23T01:49:03;4.30;99.90
52709;DHT22;38606;52.986;6.980;2024-02-23T01:51:29;4.40;99.90
52709;DHT22;38606;52.986;6.980;2024-02-23T01:53:55;5.30;99.90
52709;DHT22;38606;52.986;6.980;2024-02-23T01:56:21;4.30;99.90
52709;DHT22;38606;52.986;6.980;2024-02-23T01:58:47;5.40;99.90
52709;DHT22;38606;52.986;6.980;2024-02-23T02:01:13;5.80;99.90
52709;DHT22;38606;52.986;6.980;2024-02-23T02:03:39;4.70;99.90
52709;DHT22;38606;52.986;6.980;2024-02-23T02:06:09;4.60;99.90
52709;DHT22;38606;52.986;6.980;2024-02-23T02:08:36;4.40;99.90
52709;DHT22;38606;52.986;6.980;2024-02-23T02:11:02;5.00;99.90
52709;DHT22;38606;52.986;6.980;2024-02-23T02:13:28;4.70;99.90
52709;DHT22;38606;52.986;6.980;2024-02-23T02:15:54;5.20;99.90
52709;DHT22;38606;52.986;6.980;2024-02-23T02:18:20;4.60;99.90
52709;DHT22;38606;52.986;6.980;2024-02-23T02:20:56;5.30;99.90
52709;DHT22;38606;52.986;6.980;2024-02-23T02:23:23;4.70;99.90
52709;DHT22;38606;52.986;6.980;2024-02-23T02:25:56;5.90;99.90
52709;DHT22;38606;52.986;6.980;2024-02-23T02:28:23;4.60;99.90
52709;DHT22;38606;52.986;6.980;2024-02-23T02:30:50;4.70;99.90
52709;DHT22;38606;52.986;6.980;2024-02-23T02:33:16;5.80;99.90
52709;DHT22;38606;52.986;6.980;2024-02-23T02:35:42;5.10;99.90
52709;DHT22;38606;52.986;6.980;2024-02-23T02:38:07;4.80;99.90
52709;DHT22;38606;52.986;6.980;2024-02-23T02:40:33;5.70;99.90
52709;DHT22;38606;52.986;6.980;2024-02-23T02:42:59;5.10;99.90
52709;DHT22;38606;52.986;6.980;2024-02-23T02:45:24;6.50;99.90
52709;DHT22;38606;52.986;6.980;2024-02-23T02:47:50;5.50;99.90
52709;DHT22;38606;52.986;6.980;2024-02-23T02:50:16;5.70;99.90
52709;DHT22;38606;52.986;6.980;2024-02-23T02:52:42;6.10;99.90
52709;DHT22;38606;52.986;6.980;2024-02-23T02:55:08;5.40;99.90
52709;DHT22;38606;52.986;6.980;2024-02-23T02:57:34;5.00;99.90
52709;DHT22;38606;52.986;6.980;2024-02-23T03:00:05;5.70;99.90
52709;DHT22;38606;52.986;6.980;2024-02-23T03:02:31;5.20;99.90
52709;DHT22;38606;52.986;6.980;2024-02-23T03:04:57;6.00;99.90
52709;DHT22;38606;52.986;6.980;2024-02-23T03:07:23;5.20;99.90
52709;DHT22;38606;52.986;6.980;2024-02-23T03:09:48;6.10;99.90
52709;DHT22;38606;52.986;6.980;2024-02-23T03:12:16;5.60;99.90
52709;DHT22;38606;52.986;6.980;2024-02-23T03:14:42;5.10;99.90
52709;DHT22;38606;52.986;6.980;2024-02-23T03:17:08;6.50;99.90
52709;DHT22;38606;52.986;6.980;2024-02-23T03:19:38;5.40;99.90
52709;DHT22;38606;52.986;6.980;2024-02-23T03:22:04;5.30;99.90
52709;DHT22;38606;52.986;6.980;2024-02-23T03:24:29;5.20;99.90
52709;DHT22;38606;52.986;6.980;2024-02-23T03:26:55;6.50;99.90
52709;DHT22;38606;52.986;6.980;2024-02-23T03:29:22;5.40;99.90
52709;DHT22;38606;52.986;6.980;2024-02-23T03:31:50;5.90;99.90
52709;DHT22;38606;52.986;6.980;2024-02-23T03:34:16;5.40;99.90
52709;DHT22;38606;52.986;6.980;2024-02-23T03:36:43;5.00;99.90
52709;DHT22;38606;52.986;6.980;2024-02-23T03:39:08;5.10;99.90
52709;DHT22;38606;52.986;6.980;2024-02-23T03:41:34;5.10;99.90
52709;DHT22;38606;52.986;6.980;2024-02-23T03:44:00;5.10;99.90
52709;DHT22;38606;52.986;6.980;2024-02-23T03:46:25;5.20;99.90
52709;DHT22;38606;52.986;6.980;2024-02-23T03:48:51;3.40;99.90
52709;DHT22;38606;52.986;6.980;2024-02-23T03:51:18;6.40;99.90
52709;DHT22;38606;52.986;6.980;2024-02-23T03:53:43;5.10;99.90
52709;DHT22;38606;52.986;6.980;2024-02-23T03:56:09;5.40;99.90
52709;DHT22;38606;52.986;6.980;2024-02-23T03:58:35;5.10;99.90
52709;DHT22;38606;52.986;6.980;2024-02-23T04:01:00;5.80;99.90
52709;DHT22;38606;52.986;6.980;2024-02-23T04:03:26;5.00;99.90
52709;DHT22;38606;52.986;6.980;2024-02-23T04:05:52;6.40;99.90
52709;DHT22;38606;52.986;6.980;2024-02-23T04:08:17;6.10;99.90
52709;DHT22;38606;52.986;6.980;2024-02-23T04:10:43;4.90;99.90
52709;DHT22;38606;52.986;6.980;2024-02-23T04:13:09;5.50;99.90
52709;DHT22;38606;52.986;6.980;2024-02-23T04:15:36;5.40;99.90
52709;DHT22;38606;52.986;6.980;2024-02-23T04:18:01;5.90;99.90
52709;DHT22;38606;52.986;6.980;2024-02-23T04:20:27;4.90;99.90
52709;DHT22;38606;52.986;6.980;2024-02-23T04:22:52;4.90;99.90
52709;DHT22;38606;52.986;6.980;2024-02-23T04:25:18;4.90;99.90
52709;DHT22;38606;52.986;6.980;2024-02-23T04:27:44;6.30;99.90
52709;DHT22;38606;52.986;6.980;2024-02-23T04:30:10;5.60;99.90
52709;DHT22;38606;52.986;6.980;2024-02-23T04:32:36;4.90;99.90
52709;DHT22;38606;52.986;6.980;2024-02-23T04:35:02;6.00;99.90
52709;DHT22;38606;52.986;6.980;2024-02-23T04:37:27;4.80;99.90
52709;DHT22;38606;52.986;6.980;2024-02-23T04:39:53;5.70;99.90
52709;DHT22;38606;52.986;6.980;2024-02-23T04:42:19;5.40;99.90
52709;DHT22;38606;52.986;6.980;2024-02-23T04:44:44;5.30;99.90
52709;DHT22;38606;52.986;6.980;2024-02-23T04:47:11;5.90;99.90
52709;DHT22;38606;52.986;6.980;2024-02-23T04:49:37;6.10;99.90
52709;DHT22;38606;52.986;6.980;2024-02-23T04:52:05;4.70;99.90
52709;DHT22;38606;52.986;6.980;2024-02-23T04:54:30;4.70;99.90
52709;DHT22;38606;52.986;6.980;2024-02-23T04:56:56;4.80;99.90
52709;DHT22;38606;52.986;6.980;2024-02-23T04:59:22;4.60;99.90
52709;DHT22;38606;52.986;6.980;2024-02-23T05:01:47;3.70;99.90
52709;DHT22;38606;52.986;6.980;2024-02-23T05:04:13;4.70;99.90
52709;DHT22;38606;52.986;6.980;2024-02-23T05:06:39;4.60;99.90
52709;DHT22;38606;52.986;6.980;2024-02-23T05:09:05;4.60;99.90
52709;DHT22;38606;52.986;6.980;2024-02-23T05:11:34;4.80;99.90
52709;DHT22;38606;52.986;6.980;2024-02-23T05:14:00;6.00;99.90
52709;DHT22;38606;52.986;6.980;2024-02-23T05:16:26;4.50;99.90
52709;DHT22;38606;52.986;6.980;2024-02-23T05:18:51;5.90;99.90
52709;DHT22;38606;52.986;6.980;2024-02-23T05:21:17;4.70;99.90
52709;DHT22;38606;52.986;6.980;2024-02-23T05:23:43;4.60;99.90
52709;DHT22;38606;52.986;6.980;2024-02-23T05:26:09;5.70;99.90
52709;DHT22;38606;52.986;6.980;2024-02-23T05:28:36;4.80;99.90
52709;DHT22;38606;52.986;6.980;2024-02-23T05:31:03;4.80;99.90
52709;DHT22;38606;52.986;6.980;2024-02-23T05:33:32;4.70;99.90
52709;DHT22;38606;52.986;6.980;2024-02-23T05:35:57;5.50;99.90
52709;DHT22;38606;52.986;6.980;2024-02-23T05:38:23;4.80;99.90
52709;DHT22;38606;52.986;6.980;2024-02-23T05:40:49;5.40;99.90
52709;DHT22;38606;52.986;6.980;2024-02-23T05:43:14;5.00;99.90
52709;DHT22;38606;52.986;6.980;2024-02-23T05:45:40;4.90;99.90
52709;DHT22;38606;52.986;6.980;2024-02-23T05:48:06;5.10;99.90
52709;DHT22;38606;52.986;6.980;2024-02-23T05:50:32;5.10;99.90
52709;DHT22;38606;52.986;6.980;2024-02-23T05:52:58;4.90;99.90
52709;DHT22;38606;52.986;6.980;2024-02-23T05:55:24;6.20;99.90
52709;DHT22;38606;52.986;6.980;2024-02-23T05:57:50;5.40;99.90
52709;DHT22;38606;52.986;6.980;2024-02-23T06:00:17;5.90;99.90
52709;DHT22;38606;52.986;6.980;2024-02-23T06:02:47;5.10;99.90
52709;DHT22;38606;52.986;6.980;2024-02-23T06:05:13;5.00;99.90
52709;DHT22;38606;52.986;6.980;2024-02-23T06:07:39;5.40;99.90
52709;DHT22;38606;52.986;6.980;2024-02-23T06:10:05;5.50;99.90
52709;DHT22;38606;52.986;6.980;2024-02-23T06:12:31;5.00;99.90
52709;DHT22;38606;52.986;6.980;2024-02-23T06:14:57;5.10;99.90
52709;DHT22;38606;52.986;6.980;2024-02-23T06:17:24;4.90;99.90
52709;DHT22;38606;52.986;6.980;2024-02-23T06:19:50;5.30;99.90
52709;DHT22;38606;52.986;6.980;2024-02-23T06:22:16;5.20;99.90
52709;DHT22;38606;52.986;6.980;2024-02-23T06:24:46;6.30;99.90
52709;DHT22;38606;52.986;6.980;2024-02-23T06:27:12;5.70;99.90
52709;DHT22;38606;52.986;6.980;2024-02-23T06:29:38;4.80;99.90
52709;DHT22;38606;52.986;6.980;2024-02-23T06:32:04;5.50;99.90
52709;DHT22;38606;52.986;6.980;2024-02-23T06:34:30;4.80;99.90
52709;DHT22;38606;52.986;6.980;2024-02-23T06:36:56;5.90;99.90
52709;DHT22;38606;52.986;6.980;2024-02-23T06:39:21;5.80;99.90
52709;DHT22;38606;52.986;6.980;2024-02-23T06:41:47;5.80;99.90
52709;DHT22;38606;52.986;6.980;2024-02-23T06:44:13;4.70;99.90
52709;DHT22;38606;52.986;6.980;2024-02-23T06:46:38;5.70;99.90
52709;DHT22;38606;52.986;6.980;2024-02-23T06:49:04;5.00;99.90
52709;DHT22;38606;52.986;6.980;2024-02-23T06:51:31;4.70;99.90
52709;DHT22;38606;52.986;6.980;2024-02-23T06:53:57;4.90;99.90
52709;DHT22;38606;52.986;6.980;2024-02-23T06:56:23;5.10;99.90
52709;DHT22;38606;52.986;6.980;2024-02-23T06:58:49;5.30;99.90
52709;DHT22;38606;52.986;6.980;2024-02-23T07:01:14;5.10;99.90
52709;DHT22;38606;52.986;6.980;2024-02-23T07:03:40;6.50;99.90
52709;DHT22;38606;52.986;6.980;2024-02-23T07:06:10;5.70;99.90
52709;DHT22;38606;52.986;6.980;2024-02-23T07:08:36;5.10;99.90
52709;DHT22;38606;52.986;6.980;2024-02-23T07:11:02;5.30;99.90
52709;DHT22;38606;52.986;6.980;2024-02-23T07:13:28;5.00;99.90
52709;DHT22;38606;52.986;6.980;2024-02-23T07:15:54;5.10;99.90
52709;DHT22;38606;52.986;6.980;2024-02-23T07:18:21;4.90;99.90
52709;DHT22;38606;52.986;6.980;2024-02-23T07:20:47;6.20;99.90
52709;DHT22;38606;52.986;6.980;2024-02-23T07:23:13;5.20;99.90
52709;DHT22;38606;52.986;6.980;2024-02-23T07:25:41;5.40;99.90
52709;DHT22;38606;52.986;6.980;2024-02-23T07:28:07;5.10;99.90
52709;DHT22;38606;52.986;6.980;2024-02-23T07:30:33;5.30;99.90
52709;DHT22;38606;52.986;6.980;2024-02-23T07:33:00;5.20;99.90
52709;DHT22;38606;52.986;6.980;2024-02-23T07:35:26;5.10;99.90
52709;DHT22;38606;52.986;6.980;2024-02-23T07:37:53;5.50;99.90
52709;DHT22;38606;52.986;6.980;2024-02-23T07:40:20;5.40;99.90
52709;DHT22;38606;52.986;6.980;2024-02-23T07:42:46;6.40;99.90
52709;DHT22;38606;52.986;6.980;2024-02-23T07:45:11;5.50;99.90
52709;DHT22;38606;52.986;6.980;2024-02-23T07:47:37;5.70;99.90
52709;DHT22;38606;52.986;6.980;2024-02-23T07:50:03;5.80;99.90
52709;DHT22;38606;52.986;6.980;2024-02-23T07:52:29;5.50;99.90
52709;DHT22;38606;52.986;6.980;2024-02-23T07:54:55;6.40;99.90
52709;DHT22;38606;52.986;6.980;2024-02-23T07:57:20;5.60;99.90
52709;DHT22;38606;52.986;6.980;2024-02-23T07:59:46;6.30;99.90
52709;DHT22;38606;52.986;6.980;2024-02-23T08:02:13;6.60;99.90
52709;DHT22;38606;52.986;6.980;2024-02-23T08:04:39;6.20;99.90
52709;DHT22;38606;52.986;6.980;2024-02-23T08:07:05;5.90;99.90
52709;DHT22;38606;52.986;6.980;2024-02-23T08:09:31;6.40;99.90
52709;DHT22;38606;52.986;6.980;2024-02-23T08:11:57;5.60;99.90
52709;DHT22;38606;52.986;6.980;2024-02-23T08:14:23;5.00;99.90
52709;DHT22;38606;52.986;6.980;2024-02-23T08:16:49;5.70;99.90
52709;DHT22;38606;52.986;6.980;2024-02-23T08:19:15;7.10;99.90
52709;DHT22;38606;52.986;6.980;2024-02-23T08:21:41;5.90;99.90
52709;DHT22;38606;52.986;6.980;2024-02-23T08:24:07;5.70;99.90
52709;DHT22;38606;52.986;6.980;2024-02-23T08:26:33;6.10;99.90
52709;DHT22;38606;52.986;6.980;2024-02-23T08:28:59;5.90;99.90
52709;DHT22;38606;52.986;6.980;2024-02-23T08:31:25;7.00;99.90
52709;DHT22;38606;52.986;6.980;2024-02-23T08:33:50;6.30;99.90
52709;DHT22;38606;52.986;6.980;2024-02-23T08:36:16;6.70;99.90
52709;DHT22;38606;52.986;6.980;2024-02-23T08:38:42;6.00;99.90
52709;DHT22;38606;52.986;6.980;2024-02-23T08:41:07;6.10;99.90
52709;DHT22;38606;52.986;6.980;2024-02-23T08:43:34;6.20;99.90
52709;DHT22;38606;52.986;6.980;2024-02-23T08:46:00;6.20;99.90
52709;DHT22;38606;52.986;6.980;2024-02-23T08:48:25;6.20;99.90
52709;DHT22;38606;52.986;6.980;2024-02-23T08:50:51;6.60;99.90
52709;DHT22;38606;52.986;6.980;2024-02-23T08:53:17;7.30;99.90
52709;DHT22;38606;52.986;6.980;2024-02-23T08:55:43;6.30;99.90
52709;DHT22;38606;52.986;6.980;2024-02-23T08:58:09;6.30;99.90
52709;DHT22;38606;52.986;6.980;2024-02-23T09:00:35;6.50;99.90
52709;DHT22;38606;52.986;6.980;2024-02-23T09:03:03;7.40;99.90
52709;DHT22;38606;52.986;6.980;2024-02-23T09:05:28;6.60;99.90
52709;DHT22;38606;52.986;6.980;2024-02-23T09:07:54;6.60;99.90
52709;DHT22;38606;52.986;6.980;2024-02-23T09:10:20;6.60;99.90
52709;DHT22;38606;52.986;6.980;2024-02-23T09:12:46;6.90;99.90
52709;DHT22;38606;52.986;6.980;2024-02-23T09:15:12;6.90;99.90
52709;DHT22;38606;52.986;6.980;2024-02-23T09:17:40;6.90;99.90
52709;DHT22;38606;52.986;6.980;2024-02-23T09:20:07;7.40;99.90
52709;DHT22;38606;52.986;6.980;2024-02-23T09:22:33;7.10;99.90
52709;DHT22;38606;52.986;6.980;2024-02-23T09:24:59;7.10;99.90
52709;DHT22;38606;52.986;6.980;2024-02-23T09:27:24;7.40;99.90
52709;DHT22;38606;52.986;6.980;2024-02-23T09:29:50;7.40;99.90
52709;DHT22;38606;52.986;6.980;2024-02-23T09:32:16;8.10;99.90
52709;DHT22;38606;52.986;6.980;2024-02-23T09:34:42;7.40;99.90
52709;DHT22;38606;52.986;6.980;2024-02-23T09:37:08;7.50;99.90
52709;DHT22;38606;52.986;6.980;2024-02-23T09:39:33;7.50;99.90
52709;DHT22;38606;52.986;6.980;2024-02-23T09:42:01;7.50;99.90
52709;DHT22;38606;52.986;6.980;2024-02-23T09:44:32;7.50;99.90
52709;DHT22;38606;52.986;6.980;2024-02-23T09:47:02;7.90;99.90
52709;DHT22;38606;52.986;6.980;2024-02-23T09:49:38;8.20;99.90
52709;DHT22;38606;52.986;6.980;2024-02-23T09:52:08;7.90;99.90
52709;DHT22;38606;52.986;6.980;2024-02-23T09:54:36;7.90;99.90
52709;DHT22;38606;52.986;6.980;2024-02-23T09:57:09;8.00;99.90
52709;DHT22;38606;52.986;6.980;2024-02-23T09:59:35;7.90;99.90
52709;DHT22;38606;52.986;6.980;2024-02-23T10:02:09;7.90;99.90
52709;DHT22;38606;52.986;6.980;2024-02-23T10:04:36;7.70;99.90
52709;DHT22;38606;52.986;6.980;2024-02-23T10:07:02;7.90;99.90
52709;DHT22;38606;52.986;6.980;2024-02-23T10:09:30;7.90;99.90
52709;DHT22;38606;52.986;6.980;2024-02-23T10:11:56;7.80;99.90
52709;DHT22;38606;52.986;6.980;2024-02-23T10:14:21;7.80;99.90
52709;DHT22;38606;52.986;6.980;2024-02-23T10:16:47;8.30;99.90
52709;DHT22;38606;52.986;6.980;2024-02-23T10:19:18;7.80;99.90
52709;DHT22;38606;52.986;6.980;2024-02-23T10:21:45;7.80;99.90
52709;DHT22;38606;52.986;6.980;2024-02-23T10:24:10;7.80;99.90
52709;DHT22;38606;52.986;6.980;2024-02-23T10:26:36;8.10;99.90
52709;DHT22;38606;52.986;6.980;2024-02-23T10:29:02;6.50;99.90
52709;DHT22;38606;52.986;6.980;2024-02-23T10:31:32;7.70;99.90
52709;DHT22;38606;52.986;6.980;2024-02-23T10:33:59;8.00;99.90
52709;DHT22;38606;52.986;6.980;2024-02-23T10:36:28;8.00;99.90
52709;DHT22;38606;52.986;6.980;2024-02-23T10:38:59;7.80;99.90
52709;DHT22;38606;52.986;6.980;2024-02-23T10:41:30;7.90;99.90
52709;DHT22;38606;52.986;6.980;2024-02-23T10:43:58;7.90;99.90
52709;DHT22;38606;52.986;6.980;2024-02-23T10:46:25;7.80;99.90
52709;DHT22;38606;52.986;6.980;2024-02-23T10:48:52;8.30;99.90
52709;DHT22;38606;52.986;6.980;2024-02-23T10:51:21;7.80;99.90
52709;DHT22;38606;52.986;6.980;2024-02-23T10:53:48;7.80;99.90
52709;DHT22;38606;52.986;6.980;2024-02-23T10:56:15;7.80;99.90
52709;DHT22;38606;52.986;6.980;2024-02-23T10:58:41;8.00;99.90
52709;DHT22;38606;52.986;6.980;2024-02-23T11:01:07;7.80;99.90
52709;DHT22;38606;52.986;6.980;2024-02-23T11:03:36;7.70;99.90
52709;DHT22;38606;52.986;6.980;2024-02-23T11:06:06;8.20;99.90
52709;DHT22;38606;52.986;6.980;2024-02-23T11:08:35;8.00;99.90
52709;DHT22;38606;52.986;6.980;2024-02-23T11:11:08;8.00;99.90
52709;DHT22;38606;52.986;6.980;2024-02-23T11:13:35;7.80;99.90
52709;DHT22;38606;52.986;6.980;2024-02-23T11:16:08;8.00;99.90
52709;DHT22;38606;52.986;6.980;2024-02-23T11:18:35;7.80;99.90
52709;DHT22;38606;52.986;6.980;2024-02-23T11:21:03;7.90;99.90
52709;DHT22;38606;52.986;6.980;2024-02-23T11:23:49;7.80;99.90
52709;DHT22;38606;52.986;6.980;2024-02-23T11:26:18;7.90;99.90
52709;DHT22;38606;52.986;6.980;2024-02-23T11:28:50;7.80;99.90
52709;DHT22;38606;52.986;6.980;2024-02-23T11:31:24;7.90;99.90
52709;DHT22;38606;52.986;6.980;2024-02-23T11:33:50;8.60;99.90
52709;DHT22;38606;52.986;6.980;2024-02-23T11:36:42;8.80;99.90
52709;DHT22;38606;52.986;6.980;2024-02-23T11:39:10;8.20;99.90
52709;DHT22;38606;52.986;6.980;2024-02-23T11:41:39;7.80;99.90
52709;DHT22;38606;52.986;6.980;2024-02-23T11:44:04;8.10;99.90
52709;DHT22;38606;52.986;6.980;2024-02-23T11:46:32;8.10;99.90
52709;DHT22;38606;52.986;6.980;2024-02-23T11:48:58;8.20;99.90
52709;DHT22;38606;52.986;6.980;2024-02-23T11:51:25;9.20;99.90
52709;DHT22;38606;52.986;6.980;2024-02-23T11:53:55;9.10;99.90
52709;DHT22;38606;52.986;6.980;2024-02-23T11:56:23;9.40;99.90
52709;DHT22;38606;52.986;6.980;2024-02-23T11:58:49;8.10;99.90
52709;DHT22;38606;52.986;6.980;2024-02-23T12:01:15;8.10;99.90
52709;DHT22;38606;52.986;6.980;2024-02-23T12:03:41;8.00;99.90
52709;DHT22;38606;52.986;6.980;2024-02-23T12:06:10;8.80;99.90
52709;DHT22;38606;52.986;6.980;2024-02-23T12:08:35;8.00;99.90
52709;DHT22;38606;52.986;6.980;2024-02-23T12:11:09;8.00;99.90
52709;DHT22;38606;52.986;6.980;2024-02-23T12:13:38;7.80;99.90
52709;DHT22;38606;52.986;6.980;2024-02-23T12:16:07;7.90;99.90
52709;DHT22;38606;52.986;6.980;2024-02-23T12:18:33;7.70;99.90
52709;DHT22;38606;52.986;6.980;2024-02-23T12:21:04;7.80;99.90
52709;DHT22;38606;52.986;6.980;2024-02-23T12:23:57;8.90;99.90
52709;DHT22;38606;52.986;6.980;2024-02-23T12:26:23;8.80;99.90
52709;DHT22;38606;52.986;6.980;2024-02-23T12:28:49;7.70;99.90
52709;DHT22;38606;52.986;6.980;2024-02-23T12:31:15;7.60;99.90
52709;DHT22;38606;52.986;6.980;2024-02-23T12:33:41;8.20;99.90
52709;DHT22;38606;52.986;6.980;2024-02-23T12:36:07;7.60;99.90
52709;DHT22;38606;52.986;6.980;2024-02-23T12:38:34;7.50;99.90
52709;DHT22;38606;52.986;6.980;2024-02-23T12:41:01;8.30;99.90
52709;DHT22;38606;52.986;6.980;2024-02-23T12:43:28;7.50;99.90
52709;DHT22;38606;52.986;6.980;2024-02-23T12:45:54;7.40;99.90
52709;DHT22;38606;52.986;6.980;2024-02-23T12:48:20;7.50;99.90
52709;DHT22;38606;52.986;6.980;2024-02-23T12:50:47;7.50;99.90
52709;DHT22;38606;52.986;6.980;2024-02-23T12:56:03;8.50;99.90
52709;DHT22;38606;52.986;6.980;2024-02-23T12:58:34;7.60;99.90
52709;DHT22;38606;52.986;6.980;2024-02-23T13:01:01;7.60;99.90
52709;DHT22;38606;52.986;6.980;2024-02-23T13:03:28;7.60;99.90
52709;DHT22;38606;52.986;6.980;2024-02-23T13:05:57;7.60;99.90
52709;DHT22;38606;52.986;6.980;2024-02-23T13:08:24;7.60;99.90
52709;DHT22;38606;52.986;6.980;2024-02-23T13:10:51;7.70;99.90
52709;DHT22;38606;52.986;6.980;2024-02-23T13:13:16;7.30;99.90
52709;DHT22;38606;52.986;6.980;2024-02-23T13:15:46;7.30;99.90
52709;DHT22;38606;52.986;6.980;2024-02-23T13:18:12;7.20;99.90
52709;DHT22;38606;52.986;6.980;2024-02-23T13:20:39;7.60;99.90
52709;DHT22;38606;52.986;6.980;2024-02-23T13:23:05;7.80;99.90
52709;DHT22;38606;52.986;6.980;2024-02-23T13:25:34;7.50;99.90
52709;DHT22;38606;52.986;6.980;2024-02-23T13:28:00;7.50;99.90
52709;DHT22;38606;52.986;6.980;2024-02-23T13:30:26;7.60;99.90
52709;DHT22;38606;52.986;6.980;2024-02-23T13:32:52;7.40;99.90
52709;DHT22;38606;52.986;6.980;2024-02-23T13:35:18;7.60;99.90
52709;DHT22;38606;52.986;6.980;2024-02-23T13:37:44;7.30;99.90
52709;DHT22;38606;52.986;6.980;2024-02-23T13:40:10;7.50;99.90
52709;DHT22;38606;52.986;6.980;2024-02-23T13:42:37;7.40;99.90
52709;DHT22;38606;52.986;6.980;2024-02-23T13:45:08;7.50;99.90
52709;DHT22;38606;52.986;6.980;2024-02-23T13:47:36;7.50;99.90
52709;DHT22;38606;52.986;6.980;2024-02-23T13:50:02;8.60;99.90
52709;DHT22;38606;52.986;6.980;2024-02-23T13:52:28;7.60;99.90
52709;DHT22;38606;52.986;6.980;2024-02-23T13:54:54;7.80;99.90
52709;DHT22;38606;52.986;6.980;2024-02-23T13:57:20;7.60;99.90
52709;DHT22;38606;52.986;6.980;2024-02-23T13:59:46;7.90;99.90
52709;DHT22;38606;52.986;6.980;2024-02-23T14:02:12;7.50;99.90
52709;DHT22;38606;52.986;6.980;2024-02-23T14:04:38;7.90;99.90
52709;DHT22;38606;52.986;6.980;2024-02-23T14:07:03;8.00;99.90
52709;DHT22;38606;52.986;6.980;2024-02-23T14:09:30;7.30;99.90
52709;DHT22;38606;52.986;6.980;2024-02-23T14:11:56;7.60;99.90
52709;DHT22;38606;52.986;6.980;2024-02-23T14:14:22;8.00;99.90
52709;DHT22;38606;52.986;6.980;2024-02-23T14:16:49;7.60;99.90
52709;DHT22;38606;52.986;6.980;2024-02-23T14:19:14;7.70;99.90
52709;DHT22;38606;52.986;6.980;2024-02-23T14:21:40;7.60;99.90
52709;DHT22;38606;52.986;6.980;2024-02-23T14:24:06;7.80;99.90
52709;DHT22;38606;52.986;6.980;2024-02-23T14:26:32;7.70;99.90
52709;DHT22;38606;52.986;6.980;2024-02-23T14:28:58;8.00;99.90
52709;DHT22;38606;52.986;6.980;2024-02-23T14:31:25;7.80;99.90
52709;DHT22;38606;52.986;6.980;2024-02-23T14:33:51;7.70;99.90
52709;DHT22;38606;52.986;6.980;2024-02-23T14:36:18;7.80;99.90
52709;DHT22;38606;52.986;6.980;2024-02-23T14:38:43;8.10;99.90
52709;DHT22;38606;52.986;6.980;2024-02-23T14:41:09;8.10;99.90
52709;DHT22;38606;52.986;6.980;2024-02-23T14:43:36;8.10;99.90
52709;DHT22;38606;52.986;6.980;2024-02-23T14:46:02;8.00;99.90
52709;DHT22;38606;52.986;6.980;2024-02-23T14:48:28;8.10;99.90
52709;DHT22;38606;52.986;6.980;2024-02-23T14:50:54;8.00;99.90
52709;DHT22;38606;52.986;6.980;2024-02-23T14:53:20;8.00;99.90
52709;DHT22;38606;52.986;6.980;2024-02-23T14:55:45;7.90;99.90
52709;DHT22;38606;52.986;6.980;2024-02-23T14:58:12;7.90;99.90
52709;DHT22;38606;52.986;6.980;2024-02-23T15:00:38;7.90;99.90
52709;DHT22;38606;52.986;6.980;2024-02-23T15:03:04;8.00;99.90
52709;DHT22;38606;52.986;6.980;2024-02-23T15:05:30;7.80;99.90
52709;DHT22;38606;52.986;6.980;2024-02-23T15:07:56;7.70;99.90
52709;DHT22;38606;52.986;6.980;2024-02-23T15:10:22;8.70;99.90
52709;DHT22;38606;52.986;6.980;2024-02-23T15:12:48;7.80;99.90
52709;DHT22;38606;52.986;6.980;2024-02-23T15:15:13;8.30;99.90
52709;DHT22;38606;52.986;6.980;2024-02-23T15:17:39;8.00;99.90
52709;DHT22;38606;52.986;6.980;2024-02-23T15:20:08;7.70;99.90
52709;DHT22;38606;52.986;6.980;2024-02-23T15:22:34;7.70;99.90
52709;DHT22;38606;52.986;6.980;2024-02-23T15:25:00;7.80;99.90
52709;DHT22;38606;52.986;6.980;2024-02-23T15:27:25;7.90;99.90
52709;DHT22;38606;52.986;6.980;2024-02-23T15:29:51;8.10;99.90
52709;DHT22;38606;52.986;6.980;2024-02-23T15:32:17;8.00;99.90
52709;DHT22;38606;52.986;6.980;2024-02-23T15:34:43;8.00;99.90
52709;DHT22;38606;52.986;6.980;2024-02-23T15:37:12;7.70;99.90
52709;DHT22;38606;52.986;6.980;2024-02-23T15:39:37;7.80;99.90
52709;DHT22;38606;52.986;6.980;2024-02-23T15:42:04;7.90;99.90
52709;DHT22;38606;52.986;6.980;2024-02-23T15:44:30;7.60;99.90